sensor_id;sensor_type;location;lat;lon;timestamp;P1;durP1;ratioP1;P2;durP2;ratioP2
37019;SDS011;22932;52.442;16.896;2022-07-10T00:00:07;2.40;;;1.50;;
37019;SDS011;22932;52.442;16.896;2022-07-10T00:02:40;3.20;;;1.90;;
37019;SDS011;22932;52.442;16.896;2022-07-10T00:07:40;3.10;;;1.40;;
37019;SDS011;22932;52.442;16.896;2022-07-10T00:10:09;3.40;;;1.50;;
37019;SDS011;22932;52.442;16.896;2022-07-10T00:12:39;2.00;;;1.80;;
37019;SDS011;22932;52.442;16.896;2022-07-10T00:15:09;3.50;;;1.70;;
37019;SDS011;22932;52.442;16.896;2022-07-10T00:17:39;1.90;;;1.40;;
37019;SDS011;22932;52.442;16.896;2022-07-10T00:20:09;1.50;;;1.30;;
37019;SDS011;22932;52.442;16.896;2022-07-10T00:22:40;3.20;;;1.60;;
37019;SDS011;22932;52.442;16.896;2022-07-10T00:25:10;2.60;;;1.20;;
37019;SDS011;22932;52.442;16.896;2022-07-10T00:27:41;5.70;;;1.40;;
37019;SDS011;22932;52.442;16.896;2022-07-10T00:30:10;2.80;;;1.00;;
37019;SDS011;22932;52.442;16.896;2022-07-10T00:32:40;5.10;;;1.10;;
37019;SDS011;22932;52.442;16.896;2022-07-10T00:35:09;3.10;;;1.30;;
37019;SDS011;22932;52.442;16.896;2022-07-10T00:37:39;1.70;;;0.90;;
37019;SDS011;22932;52.442;16.896;2022-07-10T00:40:08;3.30;;;1.50;;
37019;SDS011;22932;52.442;16.896;2022-07-10T00:42:38;2.00;;;1.10;;
37019;SDS011;22932;52.442;16.896;2022-07-10T00:45:09;4.00;;;1.40;;
37019;SDS011;22932;52.442;16.896;2022-07-10T00:47:38;5.20;;;1.30;;
37019;SDS011;22932;52.442;16.896;2022-07-10T00:50:09;5.80;;;1.20;;
37019;SDS011;22932;52.442;16.896;2022-07-10T00:52:38;4.40;;;1.20;;
37019;SDS011;22932;52.442;16.896;2022-07-10T00:55:08;3.00;;;1.30;;
37019;SDS011;22932;52.442;16.896;2022-07-10T00:57:38;2.20;;;1.00;;
37019;SDS011;22932;52.442;16.896;2022-07-10T01:00:09;2.40;;;1.00;;
37019;SDS011;22932;52.442;16.896;2022-07-10T01:02:38;1.90;;;0.80;;
37019;SDS011;22932;52.442;16.896;2022-07-10T01:05:10;4.60;;;1.10;;
37019;SDS011;22932;52.442;16.896;2022-07-10T01:07:40;4.10;;;1.00;;
37019;SDS011;22932;52.442;16.896;2022-07-10T01:10:09;2.60;;;0.90;;
37019;SDS011;22932;52.442;16.896;2022-07-10T01:12:38;3.50;;;1.10;;
37019;SDS011;22932;52.442;16.896;2022-07-10T01:15:08;4.50;;;1.20;;
37019;SDS011;22932;52.442;16.896;2022-07-10T01:17:38;3.40;;;2.60;;
37019;SDS011;22932;52.442;16.896;2022-07-10T01:20:08;4.90;;;1.90;;
37019;SDS011;22932;52.442;16.896;2022-07-10T01:22:38;3.30;;;1.30;;
37019;SDS011;22932;52.442;16.896;2022-07-10T01:25:08;7.10;;;1.80;;
37019;SDS011;22932;52.442;16.896;2022-07-10T01:27:38;4.40;;;1.00;;
37019;SDS011;22932;52.442;16.896;2022-07-10T01:30:08;3.60;;;1.60;;
37019;SDS011;22932;52.442;16.896;2022-07-10T01:32:39;3.60;;;0.90;;
37019;SDS011;22932;52.442;16.896;2022-07-10T01:35:09;3.30;;;1.10;;
37019;SDS011;22932;52.442;16.896;2022-07-10T01:37:39;3.80;;;1.00;;
37019;SDS011;22932;52.442;16.896;2022-07-10T01:40:09;2.80;;;0.90;;
37019;SDS011;22932;52.442;16.896;2022-07-10T01:42:38;5.00;;;1.20;;
37019;SDS011;22932;52.442;16.896;2022-07-10T01:45:08;2.40;;;0.70;;
37019;SDS011;22932;52.442;16.896;2022-07-10T01:50:07;3.90;;;1.00;;
37019;SDS011;22932;52.442;16.896;2022-07-10T01:52:37;4.90;;;1.00;;
37019;SDS011;22932;52.442;16.896;2022-07-10T01:55:07;5.30;;;1.50;;
37019;SDS011;22932;52.442;16.896;2022-07-10T01:57:37;3.50;;;1.10;;
37019;SDS011;22932;52.442;16.896;2022-07-10T02:00:07;4.50;;;1.00;;
37019;SDS011;22932;52.442;16.896;2022-07-10T02:02:37;3.60;;;1.30;;
37019;SDS011;22932;52.442;16.896;2022-07-10T02:05:07;4.00;;;0.90;;
37019;SDS011;22932;52.442;16.896;2022-07-10T02:07:37;4.40;;;1.20;;
37019;SDS011;22932;52.442;16.896;2022-07-10T02:10:07;6.10;;;0.90;;
37019;SDS011;22932;52.442;16.896;2022-07-10T02:12:36;4.80;;;1.00;;
37019;SDS011;22932;52.442;16.896;2022-07-10T02:15:07;7.40;;;1.30;;
37019;SDS011;22932;52.442;16.896;2022-07-10T02:20:05;4.60;;;1.10;;
37019;SDS011;22932;52.442;16.896;2022-07-10T02:22:37;5.80;;;1.30;;
37019;SDS011;22932;52.442;16.896;2022-07-10T10:12:20;1.90;;;0.60;;
37019;SDS011;22932;52.442;16.896;2022-07-10T10:14:54;2.70;;;0.80;;
37019;SDS011;22932;52.442;16.896;2022-07-10T10:17:25;1.70;;;0.60;;
37019;SDS011;22932;52.442;16.896;2022-07-10T10:22:47;2.20;;;0.70;;
37019;SDS011;22932;52.442;16.896;2022-07-10T10:25:17;3.10;;;1.00;;
37019;SDS011;22932;52.442;16.896;2022-07-10T10:27:47;2.10;;;1.20;;
37019;SDS011;22932;52.442;16.896;2022-07-10T10:30:17;3.20;;;0.80;;
37019;SDS011;22932;52.442;16.896;2022-07-10T10:32:47;2.40;;;1.00;;
37019;SDS011;22932;52.442;16.896;2022-07-10T10:38:13;1.80;;;0.90;;
37019;SDS011;22932;52.442;16.896;2022-07-10T10:40:42;3.30;;;1.10;;
37019;SDS011;22932;52.442;16.896;2022-07-10T10:43:17;4.00;;;1.70;;
37019;SDS011;22932;52.442;16.896;2022-07-10T10:45:48;4.40;;;1.10;;
37019;SDS011;22932;52.442;16.896;2022-07-10T10:48:18;5.10;;;1.50;;
37019;SDS011;22932;52.442;16.896;2022-07-10T10:50:48;2.50;;;1.10;;
37019;SDS011;22932;52.442;16.896;2022-07-10T10:53:19;4.00;;;1.00;;
37019;SDS011;22932;52.442;16.896;2022-07-10T10:58:52;1.10;;;0.90;;
37019;SDS011;22932;52.442;16.896;2022-07-10T11:01:25;4.40;;;1.00;;
37019;SDS011;22932;52.442;16.896;2022-07-10T11:04:14;2.50;;;1.10;;
37019;SDS011;22932;52.442;16.896;2022-07-10T11:06:46;3.60;;;1.10;;
37019;SDS011;22932;52.442;16.896;2022-07-10T11:09:27;3.30;;;1.60;;
37019;SDS011;22932;52.442;16.896;2022-07-10T11:12:04;2.50;;;1.10;;
37019;SDS011;22932;52.442;16.896;2022-07-10T11:14:35;3.00;;;1.10;;
37019;SDS011;22932;52.442;16.896;2022-07-10T11:17:06;4.20;;;1.50;;
37019;SDS011;22932;52.442;16.896;2022-07-10T11:19:36;3.00;;;1.20;;
37019;SDS011;22932;52.442;16.896;2022-07-10T11:22:13;5.20;;;1.30;;
37019;SDS011;22932;52.442;16.896;2022-07-10T11:24:58;5.10;;;1.30;;
37019;SDS011;22932;52.442;16.896;2022-07-10T11:27:42;4.00;;;1.40;;
37019;SDS011;22932;52.442;16.896;2022-07-10T11:30:43;4.50;;;1.20;;
37019;SDS011;22932;52.442;16.896;2022-07-10T11:33:17;4.10;;;1.40;;
37019;SDS011;22932;52.442;16.896;2022-07-10T11:35:47;1.80;;;0.90;;
37019;SDS011;22932;52.442;16.896;2022-07-10T11:38:21;2.10;;;1.00;;
37019;SDS011;22932;52.442;16.896;2022-07-10T11:40:52;2.40;;;1.00;;
37019;SDS011;22932;52.442;16.896;2022-07-10T11:43:22;2.70;;;0.90;;
37019;SDS011;22932;52.442;16.896;2022-07-10T11:45:52;3.30;;;1.20;;
37019;SDS011;22932;52.442;16.896;2022-07-10T11:48:25;2.70;;;1.00;;
37019;SDS011;22932;52.442;16.896;2022-07-10T11:50:55;2.30;;;1.00;;
37019;SDS011;22932;52.442;16.896;2022-07-10T11:53:25;3.80;;;1.20;;
37019;SDS011;22932;52.442;16.896;2022-07-10T11:55:55;2.10;;;1.20;;
37019;SDS011;22932;52.442;16.896;2022-07-10T11:58:24;3.50;;;1.30;;
37019;SDS011;22932;52.442;16.896;2022-07-10T12:01:00;5.00;;;1.40;;
37019;SDS011;22932;52.442;16.896;2022-07-10T12:03:33;2.70;;;1.30;;
37019;SDS011;22932;52.442;16.896;2022-07-10T12:06:03;2.90;;;1.00;;
37019;SDS011;22932;52.442;16.896;2022-07-10T12:08:43;3.30;;;1.20;;
37019;SDS011;22932;52.442;16.896;2022-07-10T12:11:13;3.10;;;1.30;;
37019;SDS011;22932;52.442;16.896;2022-07-10T12:13:44;2.80;;;1.60;;
37019;SDS011;22932;52.442;16.896;2022-07-10T12:18:43;3.70;;;1.40;;
37019;SDS011;22932;52.442;16.896;2022-07-10T12:21:13;3.00;;;1.00;;
37019;SDS011;22932;52.442;16.896;2022-07-10T12:23:44;4.40;;;1.30;;
37019;SDS011;22932;52.442;16.896;2022-07-10T12:26:15;5.90;;;1.40;;
37019;SDS011;22932;52.442;16.896;2022-07-10T12:28:51;2.80;;;1.10;;
37019;SDS011;22932;52.442;16.896;2022-07-10T12:31:23;3.00;;;1.80;;
37019;SDS011;22932;52.442;16.896;2022-07-10T12:33:55;1.80;;;1.30;;
37019;SDS011;22932;52.442;16.896;2022-07-10T12:36:28;4.10;;;1.10;;
37019;SDS011;22932;52.442;16.896;2022-07-10T12:39:11;4.00;;;1.30;;
37019;SDS011;22932;52.442;16.896;2022-07-10T12:41:57;3.90;;;1.50;;
37019;SDS011;22932;52.442;16.896;2022-07-10T12:44:41;4.10;;;0.90;;
37019;SDS011;22932;52.442;16.896;2022-07-10T12:47:14;3.50;;;1.70;;
37019;SDS011;22932;52.442;16.896;2022-07-10T12:49:53;3.30;;;1.20;;
37019;SDS011;22932;52.442;16.896;2022-07-10T12:55:06;2.80;;;1.10;;
37019;SDS011;22932;52.442;16.896;2022-07-10T12:57:50;2.30;;;1.10;;
37019;SDS011;22932;52.442;16.896;2022-07-10T13:00:22;2.40;;;1.00;;
37019;SDS011;22932;52.442;16.896;2022-07-10T13:48:56;2.50;;;0.90;;
37019;SDS011;22932;52.442;16.896;2022-07-10T13:51:26;3.00;;;0.80;;
37019;SDS011;22932;52.442;16.896;2022-07-10T13:53:55;2.60;;;0.70;;
37019;SDS011;22932;52.442;16.896;2022-07-10T13:56:24;2.50;;;1.30;;
37019;SDS011;22932;52.442;16.896;2022-07-10T13:58:54;2.40;;;0.90;;
37019;SDS011;22932;52.442;16.896;2022-07-10T14:01:23;2.60;;;1.00;;
37019;SDS011;22932;52.442;16.896;2022-07-10T14:03:52;2.30;;;1.00;;
37019;SDS011;22932;52.442;16.896;2022-07-10T14:06:21;2.90;;;1.40;;
37019;SDS011;22932;52.442;16.896;2022-07-10T14:08:51;2.10;;;1.60;;
37019;SDS011;22932;52.442;16.896;2022-07-10T14:11:20;3.40;;;1.60;;
37019;SDS011;22932;52.442;16.896;2022-07-10T14:13:50;2.10;;;0.90;;
37019;SDS011;22932;52.442;16.896;2022-07-10T14:16:19;1.60;;;0.90;;
37019;SDS011;22932;52.442;16.896;2022-07-10T14:18:48;2.40;;;0.80;;
37019;SDS011;22932;52.442;16.896;2022-07-10T14:21:18;3.10;;;1.10;;
37019;SDS011;22932;52.442;16.896;2022-07-10T14:23:51;3.00;;;0.90;;
37019;SDS011;22932;52.442;16.896;2022-07-10T14:26:22;1.30;;;1.00;;
37019;SDS011;22932;52.442;16.896;2022-07-10T14:28:52;3.30;;;1.40;;
37019;SDS011;22932;52.442;16.896;2022-07-10T14:31:21;4.00;;;1.60;;
37019;SDS011;22932;52.442;16.896;2022-07-10T14:33:50;1.90;;;1.10;;
37019;SDS011;22932;52.442;16.896;2022-07-10T14:36:20;3.30;;;1.80;;
37019;SDS011;22932;52.442;16.896;2022-07-10T14:38:52;2.50;;;1.30;;
37019;SDS011;22932;52.442;16.896;2022-07-10T14:41:22;2.90;;;1.30;;
37019;SDS011;22932;52.442;16.896;2022-07-10T14:43:52;3.10;;;1.40;;
37019;SDS011;22932;52.442;16.896;2022-07-10T14:46:21;3.00;;;1.50;;
37019;SDS011;22932;52.442;16.896;2022-07-10T14:48:50;4.20;;;1.60;;
37019;SDS011;22932;52.442;16.896;2022-07-10T14:51:20;2.60;;;1.40;;
37019;SDS011;22932;52.442;16.896;2022-07-10T14:53:49;1.20;;;0.90;;
37019;SDS011;22932;52.442;16.896;2022-07-10T14:56:20;1.70;;;0.40;;
37019;SDS011;22932;52.442;16.896;2022-07-10T14:58:49;0.50;;;0.30;;
37019;SDS011;22932;52.442;16.896;2022-07-10T15:01:19;1.70;;;0.50;;
37019;SDS011;22932;52.442;16.896;2022-07-10T15:03:48;0.80;;;0.40;;
37019;SDS011;22932;52.442;16.896;2022-07-10T15:06:17;1.00;;;0.30;;
37019;SDS011;22932;52.442;16.896;2022-07-10T15:08:46;0.30;;;0.30;;
37019;SDS011;22932;52.442;16.896;2022-07-10T15:11:17;1.00;;;0.30;;
37019;SDS011;22932;52.442;16.896;2022-07-10T15:13:48;1.10;;;0.50;;
37019;SDS011;22932;52.442;16.896;2022-07-10T15:18:47;0.30;;;0.30;;
37019;SDS011;22932;52.442;16.896;2022-07-10T15:21:17;1.80;;;0.80;;
37019;SDS011;22932;52.442;16.896;2022-07-10T15:23:46;0.50;;;0.50;;
37019;SDS011;22932;52.442;16.896;2022-07-10T15:26:16;0.70;;;0.70;;
37019;SDS011;22932;52.442;16.896;2022-07-10T15:28:45;2.40;;;0.90;;
37019;SDS011;22932;52.442;16.896;2022-07-10T15:31:15;1.50;;;0.70;;
37019;SDS011;22932;52.442;16.896;2022-07-10T15:33:44;3.80;;;1.10;;
37019;SDS011;22932;52.442;16.896;2022-07-10T15:36:13;2.20;;;1.10;;
37019;SDS011;22932;52.442;16.896;2022-07-10T15:38:45;2.80;;;1.00;;
37019;SDS011;22932;52.442;16.896;2022-07-10T15:41:14;6.30;;;1.50;;
37019;SDS011;22932;52.442;16.896;2022-07-10T15:43:44;3.20;;;1.30;;
37019;SDS011;22932;52.442;16.896;2022-07-10T15:46:13;2.30;;;1.50;;
37019;SDS011;22932;52.442;16.896;2022-07-10T15:48:42;4.60;;;1.20;;
37019;SDS011;22932;52.442;16.896;2022-07-10T15:51:12;5.20;;;1.50;;
37019;SDS011;22932;52.442;16.896;2022-07-10T15:53:42;2.60;;;1.30;;
37019;SDS011;22932;52.442;16.896;2022-07-10T15:56:11;2.50;;;1.50;;
37019;SDS011;22932;52.442;16.896;2022-07-10T15:58:41;3.50;;;1.50;;
37019;SDS011;22932;52.442;16.896;2022-07-10T16:01:11;4.90;;;1.50;;
37019;SDS011;22932;52.442;16.896;2022-07-10T16:06:11;4.20;;;1.30;;
37019;SDS011;22932;52.442;16.896;2022-07-10T16:08:41;2.80;;;1.50;;
37019;SDS011;22932;52.442;16.896;2022-07-10T16:11:10;2.90;;;1.30;;
37019;SDS011;22932;52.442;16.896;2022-07-10T16:13:41;3.00;;;1.20;;
37019;SDS011;22932;52.442;16.896;2022-07-10T16:16:10;3.90;;;1.50;;
37019;SDS011;22932;52.442;16.896;2022-07-10T16:18:40;3.70;;;1.30;;
37019;SDS011;22932;52.442;16.896;2022-07-10T16:23:38;2.90;;;1.70;;
37019;SDS011;22932;52.442;16.896;2022-07-10T16:26:08;2.70;;;1.40;;
37019;SDS011;22932;52.442;16.896;2022-07-10T16:28:38;2.80;;;1.70;;
37019;SDS011;22932;52.442;16.896;2022-07-10T16:31:07;2.50;;;1.30;;
37019;SDS011;22932;52.442;16.896;2022-07-10T16:33:37;3.40;;;1.30;;
37019;SDS011;22932;52.442;16.896;2022-07-10T16:36:06;2.60;;;1.20;;
37019;SDS011;22932;52.442;16.896;2022-07-10T16:38:36;4.50;;;1.60;;
37019;SDS011;22932;52.442;16.896;2022-07-10T16:41:05;2.50;;;1.10;;
37019;SDS011;22932;52.442;16.896;2022-07-10T16:43:35;3.50;;;1.10;;
37019;SDS011;22932;52.442;16.896;2022-07-10T16:46:04;4.20;;;1.20;;
37019;SDS011;22932;52.442;16.896;2022-07-10T16:48:34;2.80;;;1.20;;
37019;SDS011;22932;52.442;16.896;2022-07-10T16:51:03;1.30;;;1.00;;
37019;SDS011;22932;52.442;16.896;2022-07-10T16:53:33;3.50;;;1.10;;
37019;SDS011;22932;52.442;16.896;2022-07-10T16:56:04;5.40;;;1.30;;
37019;SDS011;22932;52.442;16.896;2022-07-10T17:01:02;2.10;;;1.00;;
37019;SDS011;22932;52.442;16.896;2022-07-10T17:03:32;2.20;;;1.30;;
37019;SDS011;22932;52.442;16.896;2022-07-10T17:06:01;1.00;;;1.00;;
37019;SDS011;22932;52.442;16.896;2022-07-10T17:08:30;2.00;;;0.90;;
37019;SDS011;22932;52.442;16.896;2022-07-10T17:11:00;2.20;;;1.40;;
37019;SDS011;22932;52.442;16.896;2022-07-10T17:13:29;4.20;;;1.10;;
37019;SDS011;22932;52.442;16.896;2022-07-10T17:15:59;3.20;;;1.00;;
37019;SDS011;22932;52.442;16.896;2022-07-10T17:18:28;3.60;;;1.20;;
37019;SDS011;22932;52.442;16.896;2022-07-10T17:20:57;1.60;;;1.00;;
37019;SDS011;22932;52.442;16.896;2022-07-10T17:23:27;2.70;;;0.80;;
37019;SDS011;22932;52.442;16.896;2022-07-10T17:25:56;2.30;;;1.00;;
37019;SDS011;22932;52.442;16.896;2022-07-10T17:28:25;2.50;;;1.20;;
37019;SDS011;22932;52.442;16.896;2022-07-10T17:30:54;3.10;;;0.80;;
37019;SDS011;22932;52.442;16.896;2022-07-10T17:33:24;2.80;;;1.40;;
37019;SDS011;22932;52.442;16.896;2022-07-10T17:35:53;4.20;;;1.60;;
37019;SDS011;22932;52.442;16.896;2022-07-10T17:38:22;2.90;;;1.20;;
37019;SDS011;22932;52.442;16.896;2022-07-10T17:40:51;3.90;;;1.30;;
37019;SDS011;22932;52.442;16.896;2022-07-10T17:43:21;1.90;;;1.20;;
37019;SDS011;22932;52.442;16.896;2022-07-10T17:45:50;2.90;;;1.20;;
37019;SDS011;22932;52.442;16.896;2022-07-10T17:48:19;3.00;;;1.40;;
37019;SDS011;22932;52.442;16.896;2022-07-10T17:50:49;2.60;;;1.10;;
37019;SDS011;22932;52.442;16.896;2022-07-10T17:53:18;2.10;;;1.60;;
37019;SDS011;22932;52.442;16.896;2022-07-10T17:55:48;2.70;;;1.40;;
37019;SDS011;22932;52.442;16.896;2022-07-10T17:58:18;2.80;;;1.50;;
37019;SDS011;22932;52.442;16.896;2022-07-10T18:00:47;2.60;;;1.70;;
37019;SDS011;22932;52.442;16.896;2022-07-10T18:03:16;3.10;;;1.70;;
37019;SDS011;22932;52.442;16.896;2022-07-10T18:05:46;2.80;;;1.30;;
37019;SDS011;22932;52.442;16.896;2022-07-10T18:08:15;4.30;;;1.50;;
37019;SDS011;22932;52.442;16.896;2022-07-10T18:10:46;2.90;;;1.50;;
37019;SDS011;22932;52.442;16.896;2022-07-10T18:13:16;2.00;;;1.40;;
37019;SDS011;22932;52.442;16.896;2022-07-10T18:15:45;1.90;;;1.70;;
37019;SDS011;22932;52.442;16.896;2022-07-10T18:18:15;3.70;;;1.80;;
37019;SDS011;22932;52.442;16.896;2022-07-10T18:20:44;2.10;;;1.80;;
37019;SDS011;22932;52.442;16.896;2022-07-10T18:23:13;3.30;;;2.10;;
37019;SDS011;22932;52.442;16.896;2022-07-10T18:25:43;2.20;;;1.90;;
37019;SDS011;22932;52.442;16.896;2022-07-10T18:28:13;1.90;;;1.70;;
37019;SDS011;22932;52.442;16.896;2022-07-10T18:30:42;2.20;;;1.80;;
37019;SDS011;22932;52.442;16.896;2022-07-10T18:33:12;3.00;;;1.90;;
37019;SDS011;22932;52.442;16.896;2022-07-10T18:35:58;2.40;;;2.10;;
37019;SDS011;22932;52.442;16.896;2022-07-10T18:38:28;1.70;;;1.60;;
37019;SDS011;22932;52.442;16.896;2022-07-10T18:40:57;2.70;;;1.90;;
37019;SDS011;22932;52.442;16.896;2022-07-10T18:43:28;2.10;;;1.50;;
37019;SDS011;22932;52.442;16.896;2022-07-10T18:45:58;3.30;;;1.60;;
37019;SDS011;22932;52.442;16.896;2022-07-10T18:48:28;1.70;;;1.60;;
37019;SDS011;22932;52.442;16.896;2022-07-10T18:50:57;3.10;;;1.50;;
37019;SDS011;22932;52.442;16.896;2022-07-10T18:53:27;3.00;;;1.70;;
37019;SDS011;22932;52.442;16.896;2022-07-10T18:55:56;2.10;;;1.50;;
37019;SDS011;22932;52.442;16.896;2022-07-10T18:58:26;4.30;;;1.60;;
37019;SDS011;22932;52.442;16.896;2022-07-10T19:00:55;1.50;;;1.40;;
37019;SDS011;22932;52.442;16.896;2022-07-10T19:03:25;2.90;;;1.60;;
37019;SDS011;22932;52.442;16.896;2022-07-10T19:05:54;1.90;;;1.40;;
37019;SDS011;22932;52.442;16.896;2022-07-10T19:08:23;2.30;;;1.50;;
37019;SDS011;22932;52.442;16.896;2022-07-10T19:10:53;2.60;;;1.20;;
37019;SDS011;22932;52.442;16.896;2022-07-10T19:13:22;3.50;;;1.40;;
37019;SDS011;22932;52.442;16.896;2022-07-10T19:15:51;2.20;;;1.50;;
37019;SDS011;22932;52.442;16.896;2022-07-10T19:18:21;2.00;;;1.30;;
37019;SDS011;22932;52.442;16.896;2022-07-10T19:20:51;2.50;;;1.80;;
37019;SDS011;22932;52.442;16.896;2022-07-10T19:23:20;4.20;;;1.70;;
37019;SDS011;22932;52.442;16.896;2022-07-10T19:25:50;2.60;;;1.70;;
37019;SDS011;22932;52.442;16.896;2022-07-10T19:28:20;2.70;;;1.50;;
37019;SDS011;22932;52.442;16.896;2022-07-10T19:30:49;7.40;;;2.40;;
37019;SDS011;22932;52.442;16.896;2022-07-10T19:33:19;2.70;;;1.90;;
37019;SDS011;22932;52.442;16.896;2022-07-10T19:35:49;1.90;;;1.40;;
37019;SDS011;22932;52.442;16.896;2022-07-10T19:38:19;3.60;;;2.40;;
37019;SDS011;22932;52.442;16.896;2022-07-10T19:40:52;3.00;;;2.00;;
37019;SDS011;22932;52.442;16.896;2022-07-10T19:43:21;3.70;;;1.80;;
37019;SDS011;22932;52.442;16.896;2022-07-10T19:45:51;2.60;;;1.60;;
37019;SDS011;22932;52.442;16.896;2022-07-10T19:48:20;2.20;;;1.90;;
37019;SDS011;22932;52.442;16.896;2022-07-10T19:50:51;2.00;;;1.30;;
37019;SDS011;22932;52.442;16.896;2022-07-10T19:53:21;2.30;;;1.60;;
37019;SDS011;22932;52.442;16.896;2022-07-10T19:55:50;1.90;;;1.70;;
37019;SDS011;22932;52.442;16.896;2022-07-10T19:58:20;3.70;;;1.80;;
37019;SDS011;22932;52.442;16.896;2022-07-10T20:00:49;2.70;;;1.60;;
37019;SDS011;22932;52.442;16.896;2022-07-10T20:03:18;3.10;;;1.30;;
37019;SDS011;22932;52.442;16.896;2022-07-10T20:05:48;1.70;;;1.10;;
37019;SDS011;22932;52.442;16.896;2022-07-10T20:08:17;2.00;;;1.30;;
37019;SDS011;22932;52.442;16.896;2022-07-10T20:10:46;3.20;;;1.20;;
37019;SDS011;22932;52.442;16.896;2022-07-10T20:13:16;2.50;;;1.80;;
37019;SDS011;22932;52.442;16.896;2022-07-10T20:15:45;3.70;;;1.70;;
37019;SDS011;22932;52.442;16.896;2022-07-10T20:18:14;2.80;;;1.60;;
37019;SDS011;22932;52.442;16.896;2022-07-10T20:20:43;2.40;;;1.50;;
37019;SDS011;22932;52.442;16.896;2022-07-10T20:23:13;1.60;;;1.20;;
37019;SDS011;22932;52.442;16.896;2022-07-10T20:25:42;3.50;;;1.90;;
37019;SDS011;22932;52.442;16.896;2022-07-10T20:28:11;1.40;;;1.30;;
37019;SDS011;22932;52.442;16.896;2022-07-10T20:30:41;1.90;;;1.30;;
37019;SDS011;22932;52.442;16.896;2022-07-10T20:33:10;3.30;;;1.80;;
37019;SDS011;22932;52.442;16.896;2022-07-10T20:35:40;2.80;;;1.40;;
37019;SDS011;22932;52.442;16.896;2022-07-10T20:38:09;3.70;;;1.90;;
37019;SDS011;22932;52.442;16.896;2022-07-10T20:40:38;2.40;;;2.20;;
37019;SDS011;22932;52.442;16.896;2022-07-10T20:43:07;3.00;;;2.40;;
37019;SDS011;22932;52.442;16.896;2022-07-10T20:45:37;3.60;;;2.50;;
37019;SDS011;22932;52.442;16.896;2022-07-10T20:48:06;3.00;;;2.50;;
37019;SDS011;22932;52.442;16.896;2022-07-10T20:50:35;3.40;;;2.60;;
37019;SDS011;22932;52.442;16.896;2022-07-10T20:53:05;3.10;;;2.80;;
37019;SDS011;22932;52.442;16.896;2022-07-10T20:55:38;3.60;;;3.00;;
37019;SDS011;22932;52.442;16.896;2022-07-10T20:58:07;3.90;;;3.40;;
37019;SDS011;22932;52.442;16.896;2022-07-10T21:00:36;3.80;;;3.40;;
37019;SDS011;22932;52.442;16.896;2022-07-10T21:03:06;4.60;;;3.20;;
37019;SDS011;22932;52.442;16.896;2022-07-10T21:05:36;7.10;;;3.30;;
37019;SDS011;22932;52.442;16.896;2022-07-10T21:08:05;4.70;;;2.70;;
37019;SDS011;22932;52.442;16.896;2022-07-10T21:10:35;3.60;;;3.00;;
37019;SDS011;22932;52.442;16.896;2022-07-10T21:13:10;3.00;;;2.70;;
37019;SDS011;22932;52.442;16.896;2022-07-10T21:15:40;4.00;;;3.70;;
37019;SDS011;22932;52.442;16.896;2022-07-10T21:18:10;4.00;;;3.40;;
37019;SDS011;22932;52.442;16.896;2022-07-10T21:20:40;3.50;;;3.10;;
37019;SDS011;22932;52.442;16.896;2022-07-10T21:23:09;5.00;;;2.50;;
37019;SDS011;22932;52.442;16.896;2022-07-10T21:25:39;3.10;;;2.70;;
37019;SDS011;22932;52.442;16.896;2022-07-10T21:28:08;4.50;;;3.10;;
37019;SDS011;22932;52.442;16.896;2022-07-10T21:30:37;4.30;;;2.70;;
37019;SDS011;22932;52.442;16.896;2022-07-10T21:33:07;3.50;;;3.00;;
37019;SDS011;22932;52.442;16.896;2022-07-10T21:35:36;5.00;;;3.00;;
37019;SDS011;22932;52.442;16.896;2022-07-10T21:38:05;4.80;;;2.70;;
37019;SDS011;22932;52.442;16.896;2022-07-10T21:40:35;2.80;;;2.30;;
37019;SDS011;22932;52.442;16.896;2022-07-10T21:43:04;3.20;;;2.90;;
37019;SDS011;22932;52.442;16.896;2022-07-10T21:45:34;4.90;;;2.50;;
37019;SDS011;22932;52.442;16.896;2022-07-10T21:48:04;3.10;;;2.50;;
37019;SDS011;22932;52.442;16.896;2022-07-10T21:53:02;3.90;;;2.20;;
37019;SDS011;22932;52.442;16.896;2022-07-10T21:55:32;5.30;;;2.70;;
37019;SDS011;22932;52.442;16.896;2022-07-10T21:58:01;2.60;;;2.30;;
37019;SDS011;22932;52.442;16.896;2022-07-10T22:00:30;4.40;;;2.40;;
37019;SDS011;22932;52.442;16.896;2022-07-10T22:03:00;3.30;;;2.50;;
37019;SDS011;22932;52.442;16.896;2022-07-10T22:05:30;4.60;;;2.60;;
37019;SDS011;22932;52.442;16.896;2022-07-10T22:10:28;5.90;;;2.30;;
37019;SDS011;22932;52.442;16.896;2022-07-10T22:12:58;3.80;;;2.40;;
37019;SDS011;22932;52.442;16.896;2022-07-10T22:15:27;3.30;;;2.80;;
37019;SDS011;22932;52.442;16.896;2022-07-10T22:17:57;4.20;;;2.80;;
37019;SDS011;22932;52.442;16.896;2022-07-10T22:20:26;4.40;;;3.00;;
37019;SDS011;22932;52.442;16.896;2022-07-10T22:22:56;3.70;;;2.40;;
37019;SDS011;22932;52.442;16.896;2022-07-10T22:25:26;2.60;;;2.30;;
37019;SDS011;22932;52.442;16.896;2022-07-10T23:23:12;4.50;;;2.00;;
37019;SDS011;22932;52.442;16.896;2022-07-10T23:25:41;3.00;;;1.80;;
37019;SDS011;22932;52.442;16.896;2022-07-10T23:28:10;7.10;;;2.00;;
37019;SDS011;22932;52.442;16.896;2022-07-10T23:30:39;3.50;;;1.70;;
37019;SDS011;22932;52.442;16.896;2022-07-10T23:33:09;4.70;;;1.90;;
37019;SDS011;22932;52.442;16.896;2022-07-10T23:35:38;5.70;;;1.70;;
37019;SDS011;22932;52.442;16.896;2022-07-10T23:38:07;3.10;;;1.80;;
37019;SDS011;22932;52.442;16.896;2022-07-10T23:40:36;3.70;;;2.00;;
37019;SDS011;22932;52.442;16.896;2022-07-10T23:43:05;2.30;;;1.80;;
37019;SDS011;22932;52.442;16.896;2022-07-10T23:45:35;3.00;;;1.80;;
37019;SDS011;22932;52.442;16.896;2022-07-10T23:48:04;5.40;;;2.30;;
37019;SDS011;22932;52.442;16.896;2022-07-10T23:50:33;2.80;;;1.40;;
37019;SDS011;22932;52.442;16.896;2022-07-10T23:53:03;3.50;;;1.70;;
37019;SDS011;22932;52.442;16.896;2022-07-10T23:55:32;5.80;;;1.90;;
37019;SDS011;22932;52.442;16.896;2022-07-10T23:58:01;5.00;;;2.10;;
